Time;durP1;ratioP1;P1;durP2;ratioP2;P2;SDS_P1;SDS_P2;PMS_P1;PMS_P2;Temp;Humidity;BMP_temperature;BMP_pressure;BME280_temperature;BME280_humidity;BME280_pressure;Samples;Min_cycle;Max_cycle;Signal;HPM_P1;HPM_P2
2023/11/11 00:00:17;;;;;;;5.00;1.90;;;;;;;;;;5050438;28;20021;-62
2023/11/11 00:02:42;;;;;;;5.32;1.98;;;;;;;;;;5048089;28;20393;-60
2023/11/11 00:05:07;;;;;;;7.37;2.10;;;;;;;;;;5050868;28;20017;-59
2023/11/11 00:07:32;;;;;;;5.37;2.30;;;;;;;;;;5051155;28;20047;-61
2023/11/11 00:09:58;;;;;;;4.93;2.33;;;;;;;;;;5052729;28;20036;-59
2023/11/11 00:12:23;;;;;;;6.63;2.50;;;;;;;;;;5061367;28;20431;-60
2023/11/11 00:14:48;;;;;;;5.47;2.33;;;;;;;;;;5060627;28;21014;-61
2023/11/11 00:17:14;;;;;;;5.50;2.20;;;;;;;;;;5050374;28;20024;-60
2023/11/11 00:19:39;;;;;;;6.37;2.50;;;;;;;;;;5050555;28;20055;-63
2023/11/11 00:22:04;;;;;;;5.53;2.20;;;;;;;;;;5050800;28;20043;-60
2023/11/11 00:24:30;;;;;;;5.53;2.17;;;;;;;;;;5050659;28;20025;-61
2023/11/11 00:26:55;;;;;;;5.82;2.28;;;;;;;;;;5050651;28;20025;-60
2023/11/11 00:29:22;;;;;;;7.03;2.30;;;;;;;;;;5050910;28;20076;-61
2023/11/11 00:31:47;;;;;;;4.93;2.08;;;;;;;;;;5050528;28;20025;-59
2023/11/11 00:34:15;;;;;;;5.30;2.28;;;;;;;;;;5047993;28;20462;-60
2023/11/11 00:36:40;;;;;;;5.47;1.95;;;;;;;;;;5059203;28;20025;-59
2023/11/11 00:39:06;;;;;;;4.82;1.85;;;;;;;;;;5050708;28;20155;-60
2023/11/11 00:41:31;;;;;;;6.13;2.00;;;;;;;;;;5050222;28;20032;-60
2023/11/11 00:43:57;;;;;;;5.83;2.00;;;;;;;;;;5050591;28;20024;-59
2023/11/11 00:46:22;;;;;;;5.63;1.92;;;;;;;;;;5050456;28;20067;-61
2023/11/11 00:48:47;;;;;;;7.37;2.00;;;;;;;;;;5053491;28;20025;-60
2023/11/11 00:51:13;;;;;;;4.70;1.97;;;;;;;;;;5050329;28;20057;-59
2023/11/11 00:53:38;;;;;;;4.57;1.80;;;;;;;;;;5053556;28;20036;-60
2023/11/11 00:56:03;;;;;;;5.33;2.07;;;;;;;;;;5054384;28;20473;-59
2023/11/11 00:58:30;;;;;;;6.40;1.80;;;;;;;;;;5053972;28;20079;-58
2023/11/11 01:00:55;;;;;;;6.00;1.85;;;;;;;;;;5053522;28;20540;-60
2023/11/11 01:03:20;;;;;;;5.43;1.90;;;;;;;;;;5053687;28;20101;-60
2023/11/11 01:05:45;;;;;;;6.13;2.13;;;;;;;;;;5052657;28;20028;-58
2023/11/11 01:08:11;;;;;;;6.87;2.13;;;;;;;;;;5053010;28;20455;-61
2023/11/11 01:10:37;;;;;;;5.72;2.00;;;;;;;;;;5053023;28;20021;-59
2023/11/11 01:13:03;;;;;;;5.53;2.00;;;;;;;;;;5053787;28;20098;-60
2023/11/11 01:15:29;;;;;;;4.40;1.80;;;;;;;;;;5052411;28;20492;-61
2023/11/11 01:17:54;;;;;;;7.75;2.33;;;;;;;;;;5054034;28;20090;-61
2023/11/11 01:20:19;;;;;;;6.47;2.30;;;;;;;;;;5053151;28;20195;-58
2023/11/11 01:22:44;;;;;;;6.37;2.30;;;;;;;;;;5051518;28;20035;-60
2023/11/11 01:25:12;;;;;;;6.03;2.30;;;;;;;;;;5053741;28;20373;-59
2023/11/11 01:27:37;;;;;;;6.28;2.33;;;;;;;;;;5050457;28;20448;-61
2023/11/11 01:30:04;;;;;;;5.25;2.20;;;;;;;;;;5053358;28;20041;-60
2023/11/11 01:32:29;;;;;;;5.95;2.40;;;;;;;;;;5052381;28;20029;-61
2023/11/11 01:34:54;;;;;;;5.93;2.60;;;;;;;;;;5053654;28;20379;-59
2023/11/11 01:37:19;;;;;;;6.87;2.43;;;;;;;;;;5054915;28;20447;-59
2023/11/11 01:39:44;;;;;;;6.07;2.40;;;;;;;;;;5051454;28;20075;-60
2023/11/11 01:42:10;;;;;;;8.20;3.10;;;;;;;;;;5063373;28;20432;-59
2023/11/11 01:44:35;;;;;;;6.17;2.77;;;;;;;;;;5060074;28;20029;-59
2023/11/11 01:47:03;;;;;;;6.73;3.00;;;;;;;;;;5065799;28;20105;-60
2023/11/11 01:49:28;;;;;;;8.13;3.10;;;;;;;;;;5060861;28;20029;-59
2023/11/11 01:51:54;;;;;;;8.98;3.10;;;;;;;;;;5053017;28;20203;-60
2023/11/11 01:54:21;;;;;;;6.22;2.90;;;;;;;;;;5053336;28;20029;-60
2023/11/11 01:56:46;;;;;;;8.07;3.00;;;;;;;;;;5051653;28;20033;-59
2023/11/11 01:59:12;;;;;;;11.32;4.07;;;;;;;;;;5051420;28;20021;-60
2023/11/11 02:01:37;;;;;;;7.20;2.95;;;;;;;;;;5052498;28;20021;-60
2023/11/11 02:04:02;;;;;;;9.35;3.35;;;;;;;;;;5051711;28;20029;-60
2023/11/11 02:06:28;;;;;;;9.67;4.00;;;;;;;;;;5052930;28;20481;-61
2023/11/11 02:08:54;;;;;;;9.50;3.80;;;;;;;;;;5052801;28;20017;-61
2023/11/11 02:11:19;;;;;;;11.30;4.17;;;;;;;;;;5052218;28;20025;-60
2023/11/11 02:13:44;;;;;;;8.50;3.70;;;;;;;;;;5050323;28;20480;-61
2023/11/11 02:16:11;;;;;;;8.70;4.40;;;;;;;;;;5051363;28;20440;-60
2023/11/11 02:18:36;;;;;;;10.15;4.95;;;;;;;;;;5052949;28;20017;-60
2023/11/11 02:21:03;;;;;;;11.17;5.00;;;;;;;;;;5051838;28;20036;-60
2023/11/11 02:23:35;;;;;;;10.48;4.22;;;;;;;;;;5052589;28;20488;-60
2023/11/11 02:26:01;;;;;;;10.35;4.78;;;;;;;;;;5052527;28;20020;-59
2023/11/11 02:28:27;;;;;;;12.02;5.32;;;;;;;;;;5052592;28;20017;-61
2023/11/11 02:30:52;;;;;;;10.60;4.53;;;;;;;;;;5049267;28;20021;-60
2023/11/11 02:33:17;;;;;;;8.70;4.23;;;;;;;;;;5051252;28;20064;-59
2023/11/11 02:35:42;;;;;;;10.77;4.83;;;;;;;;;;5052781;28;20032;-60
2023/11/11 02:38:07;;;;;;;10.60;4.67;;;;;;;;;;5050509;28;20408;-60
2023/11/11 02:40:32;;;;;;;10.60;5.17;;;;;;;;;;5051403;28;20036;-61
2023/11/11 02:42:58;;;;;;;10.95;4.78;;;;;;;;;;5052044;28;20124;-61
2023/11/11 02:45:25;;;;;;;11.07;5.50;;;;;;;;;;5051970;28;20051;-60
2023/11/11 02:47:50;;;;;;;11.77;4.93;;;;;;;;;;5049234;28;20025;-60
2023/11/11 02:50:16;;;;;;;9.40;4.60;;;;;;;;;;5051262;28;20473;-61
2023/11/11 02:52:41;;;;;;;8.83;4.70;;;;;;;;;;5051809;28;20376;-61
2023/11/11 02:55:07;;;;;;;10.37;4.70;;;;;;;;;;5051500;28;20025;-59
2023/11/11 02:57:32;;;;;;;10.27;5.07;;;;;;;;;;5051578;28;20009;-61
2023/11/11 02:59:59;;;;;;;10.48;4.97;;;;;;;;;;5051691;28;20393;-57
2023/11/11 03:02:25;;;;;;;8.85;4.72;;;;;;;;;;5050323;28;20469;-61
2023/11/11 03:04:50;;;;;;;10.30;5.20;;;;;;;;;;5051369;28;20096;-60
2023/11/11 03:07:15;;;;;;;12.23;5.40;;;;;;;;;;5051371;28;20458;-60
2023/11/11 03:09:41;;;;;;;11.80;5.50;;;;;;;;;;5046645;28;20098;-60
2023/11/11 03:12:07;;;;;;;11.68;5.75;;;;;;;;;;5051189;28;20389;-60
2023/11/11 03:14:32;;;;;;;10.50;5.70;;;;;;;;;;5052349;28;20021;-60
2023/11/11 03:16:57;;;;;;;11.03;5.30;;;;;;;;;;5052163;28;20104;-59
2023/11/11 03:19:24;;;;;;;11.23;5.57;;;;;;;;;;5052234;28;20389;-60
2023/11/11 03:21:49;;;;;;;11.20;5.50;;;;;;;;;;5051117;28;20033;-61
2023/11/11 03:24:14;;;;;;;12.17;6.13;;;;;;;;;;5049339;28;20028;-61
2023/11/11 03:26:40;;;;;;;12.30;5.80;;;;;;;;;;5051432;28;20096;-60
2023/11/11 03:29:05;;;;;;;13.23;6.63;;;;;;;;;;5050975;28;20013;-60
2023/11/11 03:31:30;;;;;;;12.17;6.40;;;;;;;;;;5050008;28;20021;-61
2023/11/11 03:33:55;;;;;;;12.63;6.07;;;;;;;;;;5051639;28;20034;-59
2023/11/11 03:36:21;;;;;;;13.47;6.37;;;;;;;;;;5051769;28;20013;-59
2023/11/11 03:38:46;;;;;;;13.90;6.57;;;;;;;;;;5052132;28;20103;-59
2023/11/11 03:41:12;;;;;;;14.68;7.03;;;;;;;;;;5049898;28;20036;-60
2023/11/11 03:43:37;;;;;;;15.10;7.47;;;;;;;;;;5053193;28;20024;-61
2023/11/11 03:46:03;;;;;;;13.52;6.65;;;;;;;;;;5059138;28;20020;-59
2023/11/11 03:48:29;;;;;;;14.73;7.50;;;;;;;;;;5058201;28;20108;-60
2023/11/11 03:50:55;;;;;;;14.80;7.57;;;;;;;;;;5065562;28;20024;-61
2023/11/11 03:53:20;;;;;;;16.13;7.90;;;;;;;;;;5086509;28;20020;-61
2023/11/11 03:55:45;;;;;;;14.30;8.00;;;;;;;;;;5089744;28;20062;-59
2023/11/11 03:58:10;;;;;;;15.43;7.83;;;;;;;;;;5078298;28;20032;-59
2023/11/11 04:00:36;;;;;;;15.80;7.82;;;;;;;;;;5053288;28;20028;-61
2023/11/11 04:03:01;;;;;;;17.80;7.47;;;;;;;;;;5052595;28;20016;-62
2023/11/11 04:05:27;;;;;;;15.03;7.73;;;;;;;;;;5051975;28;20469;-60
2023/11/11 04:07:52;;;;;;;15.98;7.55;;;;;;;;;;5047525;28;20032;-60
2023/11/11 04:10:17;;;;;;;15.50;7.87;;;;;;;;;;5046053;28;20488;-61
2023/11/11 04:12:43;;;;;;;14.60;7.72;;;;;;;;;;5051512;28;20021;-58
2023/11/11 04:15:10;;;;;;;16.70;8.60;;;;;;;;;;5051522;28;20060;-60
2023/11/11 04:17:38;;;;;;;17.55;8.40;;;;;;;;;;5051717;28;20024;-61
2023/11/11 04:20:04;;;;;;;15.82;7.60;;;;;;;;;;5051055;28;20027;-61
2023/11/11 04:22:29;;;;;;;16.15;8.02;;;;;;;;;;5051493;28;20017;-62
2023/11/11 04:24:54;;;;;;;17.27;8.80;;;;;;;;;;5055596;28;20025;-63
2023/11/11 04:27:19;;;;;;;13.73;7.57;;;;;;;;;;5055759;28;20029;-61
2023/11/11 04:29:44;;;;;;;15.47;7.50;;;;;;;;;;5055218;28;20017;-58
2023/11/11 04:32:09;;;;;;;15.68;7.88;;;;;;;;;;5054230;28;20032;-59
2023/11/11 04:34:35;;;;;;;15.90;8.03;;;;;;;;;;5054660;28;20525;-62
2023/11/11 04:37:00;;;;;;;17.58;7.97;;;;;;;;;;5054623;28;20028;-59
2023/11/11 04:39:25;;;;;;;16.20;7.85;;;;;;;;;;5051126;28;20043;-59
2023/11/11 04:41:51;;;;;;;18.08;8.82;;;;;;;;;;5053605;28;20053;-60
2023/11/11 04:44:16;;;;;;;17.80;8.80;;;;;;;;;;5056444;28;20032;-61
2023/11/11 04:46:41;;;;;;;16.23;7.97;;;;;;;;;;5057528;28;20013;-61
2023/11/11 04:49:07;;;;;;;15.73;8.23;;;;;;;;;;5060548;28;20025;-60
2023/11/11 04:51:32;;;;;;;15.27;7.83;;;;;;;;;;5058718;28;20427;-61
2023/11/11 04:53:57;;;;;;;15.50;8.05;;;;;;;;;;5067001;28;20662;-60
2023/11/11 04:56:22;;;;;;;15.43;7.60;;;;;;;;;;5058443;28;20036;-60
2023/11/11 04:58:48;;;;;;;15.87;7.83;;;;;;;;;;5054455;28;20104;-60
2023/11/11 05:01:14;;;;;;;16.87;8.10;;;;;;;;;;5054350;28;20029;-60
2023/11/11 05:03:40;;;;;;;16.55;8.05;;;;;;;;;;5054470;28;20090;-60
2023/11/11 05:06:06;;;;;;;15.68;8.02;;;;;;;;;;5052986;28;20479;-60
2023/11/11 05:08:31;;;;;;;14.23;7.78;;;;;;;;;;5054468;28;20029;-61
2023/11/11 05:10:56;;;;;;;17.90;8.27;;;;;;;;;;5053760;28;20071;-60
2023/11/11 05:13:24;;;;;;;17.02;8.35;;;;;;;;;;5051893;28;20483;-59
2023/11/11 05:15:59;;;;;;;19.98;9.15;;;;;;;;;;5052244;28;20041;-59
2023/11/11 05:18:25;;;;;;;18.02;8.52;;;;;;;;;;5054093;28;20106;-58
2023/11/11 05:20:51;;;;;;;16.98;8.77;;;;;;;;;;5053241;28;20037;-60
2023/11/11 05:23:16;;;;;;;17.25;8.80;;;;;;;;;;5055032;28;20041;-59
2023/11/11 05:25:41;;;;;;;18.13;8.33;;;;;;;;;;5051741;28;20032;-59
2023/11/11 05:28:07;;;;;;;18.52;8.60;;;;;;;;;;5053078;28;20013;-60
2023/11/11 05:30:32;;;;;;;16.98;7.80;;;;;;;;;;5052224;28;20032;-60
2023/11/11 05:32:57;;;;;;;18.73;9.35;;;;;;;;;;5053326;28;20496;-60
2023/11/11 05:35:22;;;;;;;17.95;8.75;;;;;;;;;;5053396;28;20021;-60
2023/11/11 05:37:48;;;;;;;18.70;8.73;;;;;;;;;;5054354;28;20029;-61
2023/11/11 05:40:18;;;;;;;16.57;7.70;;;;;;;;;;5053688;28;20025;-59
2023/11/11 05:42:43;;;;;;;18.13;8.52;;;;;;;;;;5047949;28;20025;-62
2023/11/11 05:45:10;;;;;;;17.00;8.07;;;;;;;;;;5046600;28;20041;-60
2023/11/11 05:47:35;;;;;;;18.38;8.48;;;;;;;;;;5053974;28;20086;-60
2023/11/11 05:50:00;;;;;;;15.57;8.00;;;;;;;;;;5051399;28;20029;-62
2023/11/11 05:52:25;;;;;;;18.63;9.00;;;;;;;;;;5056245;28;20025;-61
2023/11/11 05:54:51;;;;;;;16.50;7.43;;;;;;;;;;5052650;28;20094;-60
2023/11/11 05:57:16;;;;;;;17.70;8.27;;;;;;;;;;5053236;28;20021;-61
2023/11/11 05:59:41;;;;;;;15.73;7.53;;;;;;;;;;5052360;28;20009;-60
2023/11/11 06:02:07;;;;;;;16.33;7.93;;;;;;;;;;5051666;28;20017;-59
2023/11/11 06:04:35;;;;;;;16.27;7.75;;;;;;;;;;5052477;28;20024;-61
2023/11/11 06:07:01;;;;;;;17.80;7.63;;;;;;;;;;5052395;28;20088;-60
2023/11/11 06:09:27;;;;;;;15.93;8.15;;;;;;;;;;5052953;28;20029;-60
2023/11/11 06:11:52;;;;;;;17.05;7.57;;;;;;;;;;5052529;28;20017;-60
2023/11/11 06:14:18;;;;;;;16.33;8.02;;;;;;;;;;5052196;28;20692;-59
2023/11/11 06:16:44;;;;;;;17.30;8.07;;;;;;;;;;5052513;28;20025;-59
2023/11/11 06:19:09;;;;;;;16.33;7.25;;;;;;;;;;5051710;28;20049;-60
2023/11/11 06:21:34;;;;;;;14.40;7.37;;;;;;;;;;5048704;28;20477;-59
2023/11/11 06:23:59;;;;;;;14.90;7.60;;;;;;;;;;5051327;28;20065;-58
2023/11/11 06:26:25;;;;;;;13.73;7.13;;;;;;;;;;5059670;28;20051;-59
2023/11/11 06:28:51;;;;;;;15.75;7.88;;;;;;;;;;5048130;28;20376;-60
2023/11/11 06:31:17;;;;;;;12.75;6.45;;;;;;;;;;5048249;28;20018;-59
2023/11/11 06:33:42;;;;;;;15.48;7.68;;;;;;;;;;5049897;28;20489;-59
2023/11/11 06:36:07;;;;;;;14.30;6.87;;;;;;;;;;5051417;28;20025;-61
2023/11/11 06:38:33;;;;;;;16.50;7.60;;;;;;;;;;5055351;28;20032;-62
2023/11/11 06:40:58;;;;;;;13.98;6.97;;;;;;;;;;5052485;28;20480;-60
2023/11/11 06:43:23;;;;;;;15.98;7.20;;;;;;;;;;5053935;28;20062;-61
2023/11/11 06:45:48;;;;;;;12.53;6.47;;;;;;;;;;5053850;28;20021;-60
2023/11/11 06:48:16;;;;;;;13.90;7.15;;;;;;;;;;5064395;28;20024;-58
2023/11/11 06:50:41;;;;;;;13.48;7.03;;;;;;;;;;5065340;28;20084;-60
2023/11/11 06:53:09;;;;;;;14.40;7.17;;;;;;;;;;5066521;28;20032;-59
2023/11/11 06:55:34;;;;;;;13.07;6.88;;;;;;;;;;5064400;28;20059;-60
2023/11/11 06:57:59;;;;;;;15.33;7.70;;;;;;;;;;5052441;28;20032;-61
2023/11/11 07:00:25;;;;;;;15.20;7.40;;;;;;;;;;5061656;28;20025;-59
2023/11/11 07:02:54;;;;;;;13.75;6.53;;;;;;;;;;5057550;28;20028;-62
2023/11/11 07:05:19;;;;;;;13.15;7.10;;;;;;;;;;5052920;28;20028;-61
2023/11/11 07:07:46;;;;;;;12.40;6.23;;;;;;;;;;5057879;28;20443;-59
2023/11/11 07:10:12;;;;;;;15.65;7.20;;;;;;;;;;5057768;28;20016;-62
2023/11/11 07:12:38;;;;;;;15.17;8.00;;;;;;;;;;5053061;28;20047;-61
2023/11/11 07:15:04;;;;;;;14.40;7.13;;;;;;;;;;5052841;28;20033;-61
2023/11/11 07:17:29;;;;;;;16.10;9.35;;;;;;;;;;5052178;28;20174;-60
2023/11/11 07:19:56;;;;;;;14.13;7.10;;;;;;;;;;5050083;28;20465;-60
2023/11/11 07:22:21;;;;;;;13.38;7.03;;;;;;;;;;5053233;28;20032;-60
2023/11/11 07:24:47;;;;;;;12.70;6.72;;;;;;;;;;5052120;28;20021;-59
2023/11/11 07:27:15;;;;;;;13.27;6.80;;;;;;;;;;5055581;28;20319;-60
2023/11/11 07:29:40;;;;;;;12.68;6.45;;;;;;;;;;5054661;28;20502;-60
2023/11/11 07:32:05;;;;;;;15.40;7.30;;;;;;;;;;5050909;28;20029;-60
2023/11/11 07:34:31;;;;;;;13.82;7.18;;;;;;;;;;5046746;28;20033;-61
2023/11/11 07:36:56;;;;;;;15.25;7.55;;;;;;;;;;5051056;28;20100;-61
2023/11/11 07:39:21;;;;;;;14.70;6.80;;;;;;;;;;5049948;28;20070;-58
2023/11/11 07:41:49;;;;;;;12.63;6.23;;;;;;;;;;5047963;28;20021;-61
2023/11/11 07:44:14;;;;;;;14.00;7.03;;;;;;;;;;5050909;28;20047;-62
2023/11/11 07:46:39;;;;;;;14.70;7.22;;;;;;;;;;5050423;28;20052;-61
2023/11/11 07:49:05;;;;;;;13.90;7.67;;;;;;;;;;5050460;28;20095;-63
2023/11/11 07:51:32;;;;;;;13.82;8.27;;;;;;;;;;5057368;28;20025;-61
2023/11/11 07:53:57;;;;;;;14.88;7.25;;;;;;;;;;5056753;28;20035;-60
2023/11/11 07:56:23;;;;;;;14.43;6.87;;;;;;;;;;5057104;28;20055;-63
2023/11/11 07:58:52;;;;;;;14.98;8.75;;;;;;;;;;5068121;28;20017;-61
2023/11/11 08:01:18;;;;;;;13.50;7.45;;;;;;;;;;5058182;28;20025;-61
2023/11/11 08:03:44;;;;;;;17.42;13.32;;;;;;;;;;5052037;28;20447;-60
2023/11/11 08:06:09;;;;;;;14.13;6.95;;;;;;;;;;5051821;28;20025;-59
2023/11/11 08:08:34;;;;;;;13.57;6.77;;;;;;;;;;5051260;28;20013;-60
2023/11/11 08:11:01;;;;;;;13.60;7.35;;;;;;;;;;5050542;28;20431;-61
2023/11/11 08:13:26;;;;;;;14.00;9.35;;;;;;;;;;5050593;28;20564;-62
2023/11/11 08:15:52;;;;;;;18.03;13.20;;;;;;;;;;5053027;28;20104;-61
2023/11/11 08:18:17;;;;;;;16.35;8.73;;;;;;;;;;5040935;28;20457;-60
2023/11/11 08:20:43;;;;;;;16.83;8.43;;;;;;;;;;5040173;28;20025;-61
2023/11/11 08:23:10;;;;;;;15.50;9.05;;;;;;;;;;5037639;28;20458;-62
2023/11/11 08:25:35;;;;;;;18.35;8.70;;;;;;;;;;5031786;28;20025;-61
2023/11/11 08:28:00;;;;;;;13.45;7.57;;;;;;;;;;5043226;28;20396;-60
2023/11/11 08:30:25;;;;;;;14.25;7.47;;;;;;;;;;5041594;28;20074;-59
2023/11/11 08:32:51;;;;;;;16.90;12.67;;;;;;;;;;5045813;28;20033;-61
2023/11/11 08:35:16;;;;;;;16.13;8.67;;;;;;;;;;5044646;28;20475;-60
2023/11/11 08:37:43;;;;;;;14.97;8.43;;;;;;;;;;5046668;28;20033;-60
2023/11/11 08:40:08;;;;;;;;;;;;;;;;;;5040283;28;20020;-61
2023/11/11 08:42:33;;;;;;;16.52;9.50;;;;;;;;;;5048333;28;19918;-62
2023/11/11 08:44:58;;;;;;;16.90;9.63;;;;;;;;;;5041828;28;20028;-59
2023/11/11 08:47:26;;;;;;;13.20;7.40;;;;;;;;;;5036856;28;20828;-63
2023/11/11 08:49:53;;;;;;;18.50;15.15;;;;;;;;;;5044251;28;20548;-61
2023/11/11 08:52:18;;;;;;;13.38;6.90;;;;;;;;;;5041349;28;20037;-62
2023/11/11 08:54:44;;;;;;;21.93;20.00;;;;;;;;;;5051489;28;20071;-62
2023/11/11 08:57:11;;;;;;;14.82;9.15;;;;;;;;;;5048742;28;20025;-61
2023/11/11 08:59:36;;;;;;;15.60;8.43;;;;;;;;;;5054791;28;20098;-63
2023/11/11 09:02:03;;;;;;;16.08;9.48;;;;;;;;;;5050652;28;20627;-61
2023/11/11 09:04:29;;;;;;;13.65;8.50;;;;;;;;;;5051572;28;20081;-63
2023/11/11 09:06:54;;;;;;;29.67;27.38;;;;;;;;;;5053831;28;20509;-61
2023/11/11 09:09:20;;;;;;;14.18;7.53;;;;;;;;;;5053805;28;20033;-61
2023/11/11 09:11:45;;;;;;;22.35;20.10;;;;;;;;;;5054365;28;20488;-60
2023/11/11 09:14:10;;;;;;;18.23;13.93;;;;;;;;;;5056005;28;20029;-60
2023/11/11 09:16:36;;;;;;;18.93;16.97;;;;;;;;;;5052022;28;20032;-61
2023/11/11 09:19:04;;;;;;;16.63;13.63;;;;;;;;;;5047753;28;20099;-60
2023/11/11 09:21:30;;;;;;;15.05;10.65;;;;;;;;;;5051517;28;20025;-65
2023/11/11 09:23:55;;;;;;;22.17;20.08;;;;;;;;;;5053800;28;20426;-61
2023/11/11 09:26:21;;;;;;;16.07;14.33;;;;;;;;;;5051977;28;20084;-62
2023/11/11 09:28:49;;;;;;;13.05;7.47;;;;;;;;;;5050330;28;20412;-63
2023/11/11 09:31:15;;;;;;;14.05;7.68;;;;;;;;;;5045588;28;20017;-62
2023/11/11 09:33:41;;;;;;;17.60;15.80;;;;;;;;;;5051154;28;20641;-61
2023/11/11 09:36:06;;;;;;;17.75;16.00;;;;;;;;;;5042726;28;20021;-61
2023/11/11 09:38:32;;;;;;;19.47;17.60;;;;;;;;;;5052913;28;20097;-62
2023/11/11 09:40:57;;;;;;;41.70;38.72;;;;;;;;;;5049870;28;20461;-62
2023/11/11 09:43:23;;;;;;;14.85;10.13;;;;;;;;;;5053878;28;20086;-62
2023/11/11 09:45:50;;;;;;;14.93;10.98;;;;;;;;;;5052971;28;20064;-63
2023/11/11 09:48:16;;;;;;;11.60;6.60;;;;;;;;;;5050664;28;20468;-60
2023/11/11 09:50:44;;;;;;;19.90;16.70;;;;;;;;;;5052833;28;20087;-60
2023/11/11 09:53:09;;;;;;;10.27;6.60;;;;;;;;;;5049796;28;20025;-62
2023/11/11 09:55:36;;;;;;;14.00;10.77;;;;;;;;;;5052611;28;20037;-61
2023/11/11 09:58:02;;;;;;;15.80;13.40;;;;;;;;;;5050387;28;20024;-63
2023/11/11 10:00:28;;;;;;;11.57;7.15;;;;;;;;;;5051773;28;20025;-63
2023/11/11 10:02:54;;;;;;;34.80;32.25;;;;;;;;;;5057470;28;20478;-60
2023/11/11 10:05:20;;;;;;;13.57;7.13;;;;;;;;;;5047050;28;20524;-61
2023/11/11 10:07:46;;;;;;;13.27;7.75;;;;;;;;;;5049705;28;20021;-64
2023/11/11 10:10:12;;;;;;;16.58;15.02;;;;;;;;;;5057396;28;20149;-62
2023/11/11 10:12:39;;;;;;;11.95;6.78;;;;;;;;;;5052857;28;20024;-60
2023/11/11 10:15:04;;;;;;;13.80;11.98;;;;;;;;;;5052959;28;20025;-61
2023/11/11 10:17:30;;;;;;;12.68;11.35;;;;;;;;;;5051803;28;20024;-60
2023/11/11 10:19:57;;;;;;;13.05;10.35;;;;;;;;;;5051189;28;20021;-62
2023/11/11 10:22:22;;;;;;;15.30;13.88;;;;;;;;;;5050675;28;20035;-60
2023/11/11 10:24:48;;;;;;;10.10;6.25;;;;;;;;;;5050285;28;20141;-60
2023/11/11 10:27:13;;;;;;;13.05;7.30;;;;;;;;;;5058425;28;20119;-62
2023/11/11 10:29:38;;;;;;;12.85;7.90;;;;;;;;;;5060513;28;20082;-61
2023/11/11 10:32:08;;;;;;;13.10;11.00;;;;;;;;;;5053494;28;20918;-64
2023/11/11 10:34:33;;;;;;;12.55;9.57;;;;;;;;;;5032507;28;20029;-62
2023/11/11 10:36:58;;;;;;;12.37;11.07;;;;;;;;;;5032404;28;20021;-61
2023/11/11 10:39:24;;;;;;;12.20;6.43;;;;;;;;;;5049754;28;20804;-62
2023/11/11 10:41:49;;;;;;;16.97;15.47;;;;;;;;;;5051140;28;20033;-63
2023/11/11 10:44:14;;;;;;;14.52;9.55;;;;;;;;;;5052225;28;20033;-62
2023/11/11 10:46:40;;;;;;;10.53;6.93;;;;;;;;;;5052867;28;20016;-62
2023/11/11 10:49:08;;;;;;;14.98;13.55;;;;;;;;;;5053525;28;20030;-62
2023/11/11 10:51:34;;;;;;;12.38;7.85;;;;;;;;;;5054397;28;20074;-63
2023/11/11 10:54:00;;;;;;;18.38;16.67;;;;;;;;;;5049864;28;20025;-62
2023/11/11 10:56:26;;;;;;;11.07;6.13;;;;;;;;;;5053383;28;20021;-60
2023/11/11 10:58:53;;;;;;;33.45;31.02;;;;;;;;;;5055717;28;20024;-63
2023/11/11 11:01:19;;;;;;;10.50;6.70;;;;;;;;;;5061130;28;20027;-59
2023/11/11 11:03:44;;;;;;;14.05;11.48;;;;;;;;;;5053419;28;20017;-64
2023/11/11 11:06:31;;;;;;;10.80;6.63;;;;;;;;;;5081253;28;20071;-62
2023/11/11 11:08:56;;;;;;;12.80;9.52;;;;;;;;;;5047640;28;20059;-59
2023/11/11 11:11:32;;;;;;;12.65;7.47;;;;;;;;;;5056394;28;20021;-62
2023/11/11 11:14:05;;;;;;;15.35;11.25;;;;;;;;;;5053921;28;20369;-62
2023/11/11 11:16:34;;;;;;;15.10;13.30;;;;;;;;;;5052816;28;20040;-59
2023/11/11 11:18:59;;;;;;;23.45;21.65;;;;;;;;;;5052397;28;20538;-60
2023/11/11 11:21:30;;;;;;;11.60;7.07;;;;;;;;;;5050866;28;20033;-61
2023/11/11 11:23:56;;;;;;;9.73;7.18;;;;;;;;;;5051026;28;20078;-60
2023/11/11 11:26:31;;;;;;;5.85;3.53;;;;;;;;;;5051329;28;20400;-61
2023/11/11 11:29:22;;;;;;;19.13;17.83;;;;;;;;;;5040692;28;20435;-63
2023/11/11 11:32:06;;;;;;;10.30;9.50;;;;;;;;;;5047000;28;20137;-60
2023/11/11 11:34:34;;;;;;;5.38;3.50;;;;;;;;;;5052155;28;20140;-61
2023/11/11 11:36:59;;;;;;;16.63;15.57;;;;;;;;;;5051438;28;20021;-62
2023/11/11 11:39:27;;;;;;;3.60;2.27;;;;;;;;;;5049996;28;20028;-62
2023/11/11 11:42:01;;;;;;;9.32;8.65;;;;;;;;;;5049952;28;20622;-62
2023/11/11 11:44:26;;;;;;;2.45;0.90;;;;;;;;;;5046870;28;20028;-61
2023/11/11 11:46:51;;;;;;;10.70;9.97;;;;;;;;;;5049885;28;20032;-60
2023/11/11 11:49:16;;;;;;;4.07;2.90;;;;;;;;;;5051233;28;20094;-61
2023/11/11 11:51:50;;;;;;;4.67;3.37;;;;;;;;;;5050220;28;20028;-61
2023/11/11 11:54:15;;;;;;;3.97;3.33;;;;;;;;;;5052305;28;20051;-60
2023/11/11 11:56:41;;;;;;;4.57;3.63;;;;;;;;;;5053237;28;20029;-60
2023/11/11 11:59:11;;;;;;;6.00;5.40;;;;;;;;;;5047456;28;20025;-61
2023/11/11 12:01:36;;;;;;;4.80;3.67;;;;;;;;;;5049680;28;20059;-61
2023/11/11 12:04:01;;;;;;;5.70;5.20;;;;;;;;;;5049284;28;20048;-62
2023/11/11 12:06:27;;;;;;;3.10;1.10;;;;;;;;;;5050962;28;20097;-61
2023/11/11 12:08:54;;;;;;;4.90;2.63;;;;;;;;;;5050568;28;20598;-61
2023/11/11 12:11:23;;;;;;;3.47;1.10;;;;;;;;;;5049749;28;20025;-63
2023/11/11 12:13:49;;;;;;;3.63;1.73;;;;;;;;;;5049672;28;20184;-62
2023/11/11 12:16:15;;;;;;;2.65;1.00;;;;;;;;;;5049082;28;20127;-62
2023/11/11 12:18:40;;;;;;;4.33;3.93;;;;;;;;;;5048102;28;20083;-61
2023/11/11 12:21:07;;;;;;;3.65;1.55;;;;;;;;;;5049637;28;20112;-61
2023/11/11 12:23:32;;;;;;;5.63;5.13;;;;;;;;;;5050582;28;20025;-62
2023/11/11 12:25:57;;;;;;;3.95;1.95;;;;;;;;;;5050613;28;20443;-62
2023/11/11 12:28:22;;;;;;;4.97;1.67;;;;;;;;;;5044050;28;20036;-61
2023/11/11 12:30:48;;;;;;;6.93;6.33;;;;;;;;;;5045798;28;20638;-61
2023/11/11 12:33:13;;;;;;;3.30;1.10;;;;;;;;;;5039210;28;20022;-62
2023/11/11 12:35:41;;;;;;;3.67;2.77;;;;;;;;;;5037348;28;20020;-61
2023/11/11 12:38:30;;;;;;;4.55;3.85;;;;;;;;;;5042058;28;20021;-61
2023/11/11 12:40:59;;;;;;;3.47;2.15;;;;;;;;;;5026616;28;20036;-62
2023/11/11 12:43:26;;;;;;;3.10;1.65;;;;;;;;;;5028005;28;20025;-62
2023/11/11 12:45:52;;;;;;;12.88;12.02;;;;;;;;;;5042684;28;20025;-62
2023/11/11 12:48:17;;;;;;;12.98;12.10;;;;;;;;;;5044737;28;20109;-63
2023/11/11 12:50:43;;;;;;;3.75;2.25;;;;;;;;;;5049073;28;20013;-63
2023/11/11 12:53:10;;;;;;;2.92;1.73;;;;;;;;;;5051492;28;20036;-61
2023/11/11 12:55:36;;;;;;;4.78;4.38;;;;;;;;;;5051593;28;20043;-61
2023/11/11 12:58:20;;;;;;;4.15;3.15;;;;;;;;;;5050288;28;20021;-60
2023/11/11 13:00:50;;;;;;;6.63;6.10;;;;;;;;;;5046786;28;20017;-63
2023/11/11 13:03:19;;;;;;;7.15;6.57;;;;;;;;;;5049058;28;20581;-59
2023/11/11 13:05:47;;;;;;;5.15;3.60;;;;;;;;;;5063722;28;20021;-60
2023/11/11 13:08:12;;;;;;;65.35;59.00;;;;;;;;;;5051654;28;20025;-66
2023/11/11 13:10:39;;;;;;;2.97;1.30;;;;;;;;;;5050538;28;20040;-60
2023/11/11 13:13:06;;;;;;;17.40;16.23;;;;;;;;;;5053986;28;20986;-61
2023/11/11 13:15:33;;;;;;;1.63;0.82;;;;;;;;;;5051324;28;20032;-62
2023/11/11 13:17:59;;;;;;;3.28;2.72;;;;;;;;;;5051910;28;20028;-63
2023/11/11 13:20:26;;;;;;;3.80;1.45;;;;;;;;;;5049950;28;20033;-60
2023/11/11 13:22:52;;;;;;;5.28;4.88;;;;;;;;;;5050186;28;20024;-63
2023/11/11 13:25:17;;;;;;;2.13;0.87;;;;;;;;;;5048708;28;20025;-59
2023/11/11 13:27:42;;;;;;;1.73;1.00;;;;;;;;;;5051080;28;20024;-60
2023/11/11 13:30:11;;;;;;;3.70;2.83;;;;;;;;;;5050581;28;20102;-63
2023/11/11 13:32:37;;;;;;;2.35;1.60;;;;;;;;;;5049540;28;20516;-62
2023/11/11 13:35:04;;;;;;;9.65;8.95;;;;;;;;;;5049838;28;20428;-63
2023/11/11 13:37:29;;;;;;;5.65;5.15;;;;;;;;;;5049702;28;20021;-63
2023/11/11 13:39:55;;;;;;;3.27;2.40;;;;;;;;;;5048795;28;20048;-60
2023/11/11 13:42:22;;;;;;;1.13;0.40;;;;;;;;;;5051021;28;20040;-61
2023/11/11 13:44:50;;;;;;;1.92;0.93;;;;;;;;;;5057184;28;20035;-63
2023/11/11 13:47:15;;;;;;;2.10;0.70;;;;;;;;;;5053601;28;20051;-60
2023/11/11 13:49:40;;;;;;;4.43;4.03;;;;;;;;;;5049952;28;20416;-60
2023/11/11 13:52:05;;;;;;;5.57;5.03;;;;;;;;;;5050993;28;20052;-61
2023/11/11 13:54:31;;;;;;;2.53;1.02;;;;;;;;;;5048786;28;20444;-62
2023/11/11 13:56:56;;;;;;;2.70;1.67;;;;;;;;;;5044978;28;20025;-62
2023/11/11 13:59:22;;;;;;;1.80;0.65;;;;;;;;;;5050434;28;20021;-60
2023/11/11 14:01:47;;;;;;;4.25;1.98;;;;;;;;;;5045700;28;20059;-61
2023/11/11 14:04:15;;;;;;;3.67;1.90;;;;;;;;;;5041894;28;20028;-62
2023/11/11 14:06:40;;;;;;;1.92;0.80;;;;;;;;;;5040882;28;20846;-63
2023/11/11 14:09:07;;;;;;;3.33;2.13;;;;;;;;;;5043287;28;20083;-62
2023/11/11 14:11:32;;;;;;;2.33;1.00;;;;;;;;;;5056328;28;20085;-59
2023/11/11 14:13:58;;;;;;;4.67;4.23;;;;;;;;;;5049094;28;20032;-61
2023/11/11 14:16:27;;;;;;;2.50;1.10;;;;;;;;;;5047836;28;20017;-61
2023/11/11 14:18:52;;;;;;;2.47;1.02;;;;;;;;;;5046986;28;20366;-61
2023/11/11 14:21:17;;;;;;;3.10;1.15;;;;;;;;;;5047956;28;20033;-61
2023/11/11 14:23:43;;;;;;;3.10;1.30;;;;;;;;;;5045580;28;20680;-60
2023/11/11 14:26:09;;;;;;;3.63;1.35;;;;;;;;;;5034976;28;20043;-64